Time;durP1;ratioP1;P1;durP2;ratioP2;P2;SDS_P1;SDS_P2;PMS_P1;PMS_P2;Temp;Humidity;BMP_temperature;BMP_pressure;BME280_temperature;BME280_humidity;BME280_pressure;Samples;Min_cycle;Max_cycle;Signal;HPM_P1;HPM_P2
2023/09/01 05:06:27;;;;;;;0.88;0.88;;;;;;;;;;5371485;23;20228;-70
2023/09/01 05:08:54;;;;;;;0.95;0.95;;;;;;;;;;4958353;29;20224;-70
2023/09/01 05:11:21;;;;;;;0.70;0.70;;;;;;;;;;4958738;29;20215;-70
2023/09/01 05:13:48;;;;;;;0.90;0.90;;;;;;;;;;4958410;29;20211;-69
2023/09/01 05:16:15;;;;;;;0.80;0.80;;;;;;;;;;4959362;29;20239;-69
2023/09/01 05:18:42;;;;;;;0.90;0.90;;;;;;;;;;4958961;29;20599;-69
2023/09/01 05:21:09;;;;;;;0.75;0.75;;;;;;;;;;4959061;28;20578;-71
2023/09/01 05:23:38;;;;;;;0.80;0.80;;;;;;;;;;4958376;29;20203;-72
2023/09/01 05:26:05;;;;;;;1.08;1.08;;;;;;;;;;4958032;29;20598;-72
2023/09/01 05:28:32;;;;;;;0.70;0.70;;;;;;;;;;4957806;29;20582;-72
2023/09/01 05:30:59;;;;;;;0.95;0.95;;;;;;;;;;4958169;29;20211;-72
2023/09/01 05:33:26;;;;;;;0.60;0.60;;;;;;;;;;4958177;29;20208;-72
2023/09/01 05:35:53;;;;;;;0.73;0.73;;;;;;;;;;4958529;29;20232;-72
2023/09/01 05:38:20;;;;;;;1.10;1.10;;;;;;;;;;4957850;29;20599;-72
2023/09/01 05:40:57;;;;;;;0.60;0.60;;;;;;;;;;4957862;29;20219;-72
2023/09/01 05:43:24;;;;;;;0.90;0.90;;;;;;;;;;4958017;29;20555;-72
2023/09/01 05:45:51;;;;;;;0.90;0.90;;;;;;;;;;4957604;29;20707;-72
2023/09/01 05:48:19;;;;;;;0.77;0.77;;;;;;;;;;4957905;29;20224;-72
2023/09/01 05:50:46;;;;;;;0.63;0.63;;;;;;;;;;4957807;29;20208;-72
2023/09/01 05:53:13;;;;;;;0.80;0.80;;;;;;;;;;4957838;29;20204;-72
2023/09/01 05:55:40;;;;;;;0.80;0.80;;;;;;;;;;4957663;29;20254;-72
2023/09/01 05:58:08;;;;;;;0.73;0.73;;;;;;;;;;4957686;29;20227;-72
2023/09/01 06:00:35;;;;;;;1.20;1.20;;;;;;;;;;4957571;29;20563;-72
2023/09/01 06:03:03;;;;;;;1.40;1.38;;;;;;;;;;4957899;29;20204;-71
2023/09/01 06:05:30;;;;;;;1.30;1.30;;;;;;;;;;4957362;29;20315;-71
2023/09/01 06:07:57;;;;;;;1.20;1.20;;;;;;;;;;4957355;29;20228;-71
2023/09/01 06:10:24;;;;;;;0.95;0.95;;;;;;;;;;4956911;28;20192;-71
2023/09/01 06:12:52;;;;;;;1.50;1.40;;;;;;;;;;4957066;29;20208;-71
2023/09/01 06:15:20;;;;;;;1.25;1.25;;;;;;;;;;4957375;29;20224;-72
2023/09/01 06:17:47;;;;;;;1.13;1.13;;;;;;;;;;4957459;29;20200;-72
2023/09/01 06:20:14;;;;;;;1.08;1.08;;;;;;;;;;4957242;29;20204;-72
2023/09/01 06:22:41;;;;;;;1.08;1.08;;;;;;;;;;4957356;29;20215;-72
2023/09/01 06:25:09;;;;;;;0.98;0.98;;;;;;;;;;4957133;29;20571;-72
2023/09/01 06:27:37;;;;;;;1.08;1.08;;;;;;;;;;4957275;29;20211;-72
2023/09/01 06:30:04;;;;;;;1.10;1.10;;;;;;;;;;4957074;29;20208;-72
2023/09/01 06:32:33;;;;;;;1.10;1.10;;;;;;;;;;4956934;29;20203;-72
2023/09/01 06:35:01;;;;;;;0.93;0.90;;;;;;;;;;4956845;29;20207;-72
2023/09/01 06:37:28;;;;;;;1.05;1.05;;;;;;;;;;4956881;29;20231;-72
2023/09/01 06:39:55;;;;;;;1.00;1.00;;;;;;;;;;4956670;29;20668;-72
2023/09/01 06:42:22;;;;;;;1.00;1.00;;;;;;;;;;4956793;29;20215;-72
2023/09/01 06:44:49;;;;;;;1.25;1.20;;;;;;;;;;4956723;29;20208;-71
2023/09/01 06:47:16;;;;;;;0.88;0.88;;;;;;;;;;4956239;29;20719;-71
2023/09/01 06:49:44;;;;;;;1.30;1.10;;;;;;;;;;4956352;29;20230;-71
2023/09/01 06:52:13;;;;;;;1.20;1.20;;;;;;;;;;4956585;29;20204;-72
2023/09/01 06:54:40;;;;;;;1.13;1.13;;;;;;;;;;4956882;28;20200;-71
2023/09/01 06:57:07;;;;;;;1.10;1.08;;;;;;;;;;4956689;28;20223;-72
2023/09/01 06:59:34;;;;;;;1.55;1.30;;;;;;;;;;4956225;29;20196;-72
2023/09/01 07:02:02;;;;;;;1.70;1.10;;;;;;;;;;4956597;29;20211;-72
2023/09/01 07:04:29;;;;;;;1.17;1.10;;;;;;;;;;4956250;28;20706;-72
2023/09/01 07:06:57;;;;;;;1.25;1.20;;;;;;;;;;4956788;29;20219;-72
2023/09/01 07:09:24;;;;;;;1.08;1.08;;;;;;;;;;4955968;29;20226;-72
2023/09/01 07:11:51;;;;;;;0.85;0.85;;;;;;;;;;4956345;29;20207;-72
2023/09/01 07:14:18;;;;;;;0.93;0.93;;;;;;;;;;4956221;29;20207;-72
2023/09/01 07:16:45;;;;;;;1.20;1.10;;;;;;;;;;4956196;29;20227;-72
2023/09/01 07:19:12;;;;;;;1.63;1.52;;;;;;;;;;4956629;29;20563;-72
2023/09/01 07:21:39;;;;;;;1.50;1.30;;;;;;;;;;4956141;28;20214;-72
2023/09/01 07:24:08;;;;;;;1.25;1.20;;;;;;;;;;4956255;29;20230;-70
2023/09/01 07:26:35;;;;;;;1.05;0.95;;;;;;;;;;4955717;29;20602;-72
2023/09/01 07:29:02;;;;;;;1.20;1.20;;;;;;;;;;4956255;29;20219;-72
2023/09/01 07:31:29;;;;;;;0.60;0.60;;;;;;;;;;4955702;29;20218;-72
2023/09/01 07:33:57;;;;;;;0.70;0.70;;;;;;;;;;4955990;29;20203;-72
2023/09/01 07:36:24;;;;;;;0.80;0.80;;;;;;;;;;4955606;29;20753;-72
2023/09/01 07:38:51;;;;;;;0.73;0.70;;;;;;;;;;4956092;29;20199;-72
2023/09/01 07:41:19;;;;;;;2.80;0.75;;;;;;;;;;4956074;29;20203;-72
2023/09/01 07:43:46;;;;;;;1.45;0.90;;;;;;;;;;4955637;29;20203;-72
2023/09/01 07:46:13;;;;;;;0.60;0.60;;;;;;;;;;4955815;29;20238;-72
2023/09/01 07:48:41;;;;;;;0.70;0.70;;;;;;;;;;4955314;29;20288;-72
2023/09/01 07:51:08;;;;;;;0.50;0.50;;;;;;;;;;4955705;29;20206;-72
2023/09/01 07:53:36;;;;;;;0.73;0.70;;;;;;;;;;4955712;29;20210;-72
2023/09/01 07:56:04;;;;;;;0.70;0.60;;;;;;;;;;4955639;29;20246;-72
2023/09/01 07:58:33;;;;;;;0.45;0.45;;;;;;;;;;4955352;29;20203;-72
2023/09/01 08:01:00;;;;;;;0.47;0.47;;;;;;;;;;4955620;29;20211;-72
2023/09/01 08:03:27;;;;;;;0.82;0.70;;;;;;;;;;4955245;29;20210;-72
2023/09/01 08:05:54;;;;;;;0.95;0.65;;;;;;;;;;4955714;29;20227;-72
2023/09/01 08:08:21;;;;;;;0.60;0.60;;;;;;;;;;4955361;29;20246;-72
2023/09/01 08:10:48;;;;;;;0.55;0.55;;;;;;;;;;4955198;29;20601;-72
2023/09/01 08:13:16;;;;;;;0.40;0.40;;;;;;;;;;4955093;29;20210;-72
2023/09/01 08:15:44;;;;;;;0.60;0.60;;;;;;;;;;4955412;29;20223;-70
2023/09/01 08:18:11;;;;;;;0.60;0.60;;;;;;;;;;4955175;29;20208;-70
2023/09/01 08:20:38;;;;;;;0.50;0.50;;;;;;;;;;4955162;29;20199;-70
2023/09/01 08:23:05;;;;;;;0.50;0.50;;;;;;;;;;4954780;29;20655;-71
2023/09/01 08:25:33;;;;;;;0.65;0.45;;;;;;;;;;4955082;29;20223;-71
2023/09/01 08:28:00;;;;;;;0.70;0.70;;;;;;;;;;4955129;29;20207;-71
2023/09/01 08:30:27;;;;;;;0.43;0.43;;;;;;;;;;4955486;29;20230;-71
2023/09/01 08:32:56;;;;;;;0.80;0.68;;;;;;;;;;4955204;28;20203;-71
2023/09/01 08:35:23;;;;;;;0.50;0.50;;;;;;;;;;4957739;28;20227;-71
2023/09/01 08:37:50;;;;;;;0.50;0.50;;;;;;;;;;4958897;29;20214;-71
2023/09/01 08:40:17;;;;;;;0.63;0.63;;;;;;;;;;4958584;29;20671;-71
2023/09/01 08:42:46;;;;;;;0.60;0.50;;;;;;;;;;4959687;28;20678;-70
2023/09/01 08:45:14;;;;;;;0.52;0.50;;;;;;;;;;4959245;29;20310;-70
2023/09/01 08:47:44;;;;;;;0.65;0.65;;;;;;;;;;4958796;29;20255;-70
2023/09/01 08:50:13;;;;;;;0.50;0.50;;;;;;;;;;4958768;29;20243;-72
2023/09/01 08:52:40;;;;;;;0.73;0.50;;;;;;;;;;4959004;29;20200;-72
2023/09/01 08:55:07;;;;;;;0.60;0.60;;;;;;;;;;4958723;29;20290;-73
2023/09/01 08:57:34;;;;;;;0.82;0.82;;;;;;;;;;4958841;29;20207;-73
2023/09/01 09:00:04;;;;;;;1.30;0.80;;;;;;;;;;4958662;29;20210;-73
2023/09/01 09:02:31;;;;;;;0.63;0.63;;;;;;;;;;4958773;29;20187;-72
2023/09/01 09:04:59;;;;;;;2.50;0.88;;;;;;;;;;4958644;29;20214;-72
2023/09/01 09:07:27;;;;;;;0.60;0.60;;;;;;;;;;4958717;29;20214;-73
2023/09/01 09:09:55;;;;;;;1.05;0.70;;;;;;;;;;4958318;29;20674;-72
2023/09/01 09:12:23;;;;;;;0.80;0.80;;;;;;;;;;4958573;29;20211;-72
2023/09/01 09:14:52;;;;;;;0.88;0.70;;;;;;;;;;4958604;28;20231;-73
2023/09/01 09:17:21;;;;;;;0.70;0.70;;;;;;;;;;4958623;29;20231;-72
2023/09/01 09:19:52;;;;;;;0.60;0.60;;;;;;;;;;4958485;29;20200;-72
2023/09/01 09:22:19;;;;;;;0.60;0.60;;;;;;;;;;4958226;29;20243;-72
2023/09/01 09:24:48;;;;;;;0.65;0.65;;;;;;;;;;4958122;29;20211;-72
2023/09/01 09:27:15;;;;;;;0.50;0.50;;;;;;;;;;4957969;29;20223;-72
2023/09/01 09:29:43;;;;;;;0.43;0.43;;;;;;;;;;4957927;29;20233;-72
2023/09/01 09:32:17;;;;;;;0.73;0.73;;;;;;;;;;4957940;29;20214;-72
2023/09/01 09:34:44;;;;;;;0.77;0.77;;;;;;;;;;4957955;29;20204;-72
2023/09/01 09:37:16;;;;;;;0.70;0.70;;;;;;;;;;4957809;29;20230;-72
2023/09/01 09:39:43;;;;;;;0.68;0.68;;;;;;;;;;4957861;29;20184;-72
2023/09/01 09:42:12;;;;;;;0.70;0.60;;;;;;;;;;4957877;28;20203;-73
2023/09/01 09:44:39;;;;;;;0.75;0.75;;;;;;;;;;4957770;29;20226;-72
2023/09/01 09:47:10;;;;;;;0.90;0.90;;;;;;;;;;4956445;28;20588;-72
2023/09/01 09:49:38;;;;;;;0.70;0.70;;;;;;;;;;4958435;29;20216;-72
2023/09/01 09:52:08;;;;;;;0.73;0.73;;;;;;;;;;4957563;29;20204;-72
2023/09/01 09:54:38;;;;;;;0.75;0.60;;;;;;;;;;4957375;29;20551;-72
2023/09/01 09:57:07;;;;;;;0.80;0.50;;;;;;;;;;4957722;29;20238;-72
2023/09/01 09:59:43;;;;;;;0.70;0.70;;;;;;;;;;4957570;29;20203;-72
2023/09/01 10:02:17;;;;;;;0.60;0.60;;;;;;;;;;4957472;29;20188;-73
2023/09/01 10:04:45;;;;;;;0.40;0.40;;;;;;;;;;4957521;29;20182;-72
2023/09/01 10:07:13;;;;;;;0.65;0.60;;;;;;;;;;4957474;29;20319;-72
2023/09/01 10:09:40;;;;;;;0.50;0.50;;;;;;;;;;4957112;29;20234;-72
2023/09/01 10:12:08;;;;;;;0.60;0.60;;;;;;;;;;4957682;29;20676;-72
2023/09/01 10:14:39;;;;;;;1.00;1.00;;;;;;;;;;4956983;29;20203;-72
2023/09/01 10:17:06;;;;;;;0.80;0.80;;;;;;;;;;4957091;29;20238;-72
2023/09/01 10:19:35;;;;;;;0.70;0.70;;;;;;;;;;4956801;29;20667;-72
2023/09/01 10:22:03;;;;;;;0.88;0.70;;;;;;;;;;4957005;29;20207;-72
2023/09/01 10:24:30;;;;;;;0.73;0.73;;;;;;;;;;4957018;29;20210;-73
2023/09/01 10:27:09;;;;;;;0.70;0.70;;;;;;;;;;4957208;29;20231;-73
2023/09/01 10:29:38;;;;;;;0.70;0.52;;;;;;;;;;4958377;29;20219;-72
2023/09/01 10:32:18;;;;;;;0.60;0.60;;;;;;;;;;4957628;29;20287;-72
2023/09/01 10:34:52;;;;;;;0.60;0.60;;;;;;;;;;4957122;29;20246;-72
2023/09/01 10:37:26;;;;;;;0.70;0.70;;;;;;;;;;4956812;29;20278;-72
2023/09/01 10:39:53;;;;;;;0.50;0.50;;;;;;;;;;4956891;28;20231;-72
2023/09/01 10:42:39;;;;;;;0.90;0.90;;;;;;;;;;4956779;29;20213;-72
2023/09/01 10:45:11;;;;;;;0.80;0.80;;;;;;;;;;4956877;29;20198;-72
2023/09/01 10:47:46;;;;;;;0.88;0.88;;;;;;;;;;4956810;29;20250;-72
2023/09/01 10:50:13;;;;;;;0.75;0.75;;;;;;;;;;4956675;29;20287;-72
2023/09/01 10:52:42;;;;;;;0.80;0.80;;;;;;;;;;4956837;29;20207;-72
2023/09/01 10:55:09;;;;;;;0.65;0.65;;;;;;;;;;4956636;29;20207;-72
2023/09/01 10:57:40;;;;;;;0.80;0.80;;;;;;;;;;4956008;28;20212;-72
2023/09/01 11:00:22;;;;;;;0.80;0.80;;;;;;;;;;4956653;29;20231;-72
2023/09/01 11:02:51;;;;;;;1.17;0.70;;;;;;;;;;4956184;28;20208;-72
2023/09/01 11:05:33;;;;;;;0.85;0.85;;;;;;;;;;4956693;29;20250;-72
2023/09/01 11:08:10;;;;;;;0.82;0.82;;;;;;;;;;4956141;28;20215;-72
2023/09/01 11:10:38;;;;;;;0.80;0.80;;;;;;;;;;4956310;29;20204;-72
2023/09/01 11:13:13;;;;;;;0.68;0.68;;;;;;;;;;4956475;29;20217;-72
2023/09/01 11:15:44;;;;;;;1.08;1.02;;;;;;;;;;4956262;29;20234;-72
2023/09/01 11:18:17;;;;;;;0.60;0.60;;;;;;;;;;4956353;29;20188;-72
2023/09/01 11:20:45;;;;;;;0.60;0.60;;;;;;;;;;4956308;29;20192;-72
2023/09/01 11:23:12;;;;;;;1.17;0.70;;;;;;;;;;4956170;29;20211;-72
2023/09/01 11:25:39;;;;;;;0.45;0.45;;;;;;;;;;4979118;23;20605;-71
2023/09/01 11:28:06;;;;;;;0.70;0.70;;;;;;;;;;4956115;29;20214;-70
2023/09/01 11:30:33;;;;;;;0.50;0.50;;;;;;;;;;4956023;28;20215;-70
2023/09/01 11:33:11;;;;;;;0.75;0.75;;;;;;;;;;4956089;29;20211;-71
2023/09/01 11:35:39;;;;;;;0.80;0.80;;;;;;;;;;4955868;29;20230;-70
2023/09/01 11:38:07;;;;;;;0.85;0.85;;;;;;;;;;4955906;29;20218;-70
2023/09/01 11:40:35;;;;;;;0.50;0.50;;;;;;;;;;4956119;28;20202;-71
2023/09/01 11:43:02;;;;;;;0.60;0.60;;;;;;;;;;4956261;29;20210;-70
2023/09/01 11:45:29;;;;;;;0.60;0.60;;;;;;;;;;4956412;29;20239;-70
2023/09/01 11:47:56;;;;;;;0.73;0.73;;;;;;;;;;4955726;29;20207;-70
2023/09/01 11:50:23;;;;;;;0.73;0.73;;;;;;;;;;4955783;29;20230;-71
2023/09/01 11:52:53;;;;;;;0.80;0.80;;;;;;;;;;4955684;29;20214;-69
2023/09/01 11:55:29;;;;;;;0.50;0.50;;;;;;;;;;4955554;29;20250;-70
2023/09/01 11:57:56;;;;;;;0.60;0.60;;;;;;;;;;4955704;29;20214;-70
2023/09/01 12:00:31;;;;;;;0.60;0.60;;;;;;;;;;4955291;29;20675;-70
2023/09/01 12:02:59;;;;;;;0.90;0.90;;;;;;;;;;4955371;29;20206;-70
2023/09/01 12:05:29;;;;;;;0.70;0.70;;;;;;;;;;4955430;29;20246;-70
2023/09/01 12:07:57;;;;;;;0.82;0.82;;;;;;;;;;4955310;29;20198;-70
2023/09/01 12:10:25;;;;;;;0.70;0.70;;;;;;;;;;4954589;29;20224;-70
2023/09/01 12:13:01;;;;;;;0.70;0.70;;;;;;;;;;4955307;29;20307;-70
2023/09/01 12:15:28;;;;;;;0.80;0.80;;;;;;;;;;4955468;29;20234;-70
2023/09/01 12:17:55;;;;;;;0.70;0.70;;;;;;;;;;4955365;29;20207;-70
2023/09/01 12:20:22;;;;;;;0.70;0.70;;;;;;;;;;4955328;29;20204;-70
2023/09/01 12:22:49;;;;;;;1.35;0.95;;;;;;;;;;4955314;29;20208;-70
2023/09/01 12:25:18;;;;;;;0.80;0.80;;;;;;;;;;4954838;29;20254;-70
2023/09/01 12:27:45;;;;;;;1.23;0.93;;;;;;;;;;4955159;28;20231;-70
2023/09/01 12:30:13;;;;;;;0.70;0.70;;;;;;;;;;4955053;29;20226;-70
2023/09/01 12:32:40;;;;;;;0.80;0.80;;;;;;;;;;4955034;29;20207;-70
2023/09/01 12:35:07;;;;;;;0.60;0.60;;;;;;;;;;4955447;29;20223;-70
2023/09/01 12:37:34;;;;;;;0.70;0.70;;;;;;;;;;4955146;29;20208;-70
2023/09/01 12:40:01;;;;;;;0.73;0.73;;;;;;;;;;4955128;29;20564;-70
2023/09/01 12:42:30;;;;;;;0.50;0.50;;;;;;;;;;4955057;29;20203;-70
2023/09/01 12:44:57;;;;;;;0.93;0.70;;;;;;;;;;4954978;29;20230;-70
2023/09/01 12:47:24;;;;;;;0.70;0.70;;;;;;;;;;4955024;29;20614;-70
2023/09/01 12:49:51;;;;;;;0.63;0.63;;;;;;;;;;4955064;29;20226;-70
2023/09/01 12:52:18;;;;;;;0.70;0.70;;;;;;;;;;4955346;29;20203;-70
2023/09/01 12:54:45;;;;;;;0.60;0.60;;;;;;;;;;4955119;29;20231;-70
2023/09/01 12:57:12;;;;;;;0.75;0.75;;;;;;;;;;4955220;29;20188;-71
2023/09/01 12:59:40;;;;;;;0.60;0.60;;;;;;;;;;4955206;29;20208;-71
2023/09/01 13:02:07;;;;;;;0.60;0.60;;;;;;;;;;4954981;29;20208;-69
2023/09/01 13:04:34;;;;;;;0.70;0.70;;;;;;;;;;4954930;29;20235;-70
2023/09/01 13:07:01;;;;;;;0.60;0.60;;;;;;;;;;4954581;29;20550;-69
2023/09/01 13:09:28;;;;;;;0.63;0.63;;;;;;;;;;4955255;29;20200;-70
2023/09/01 13:11:55;;;;;;;0.70;0.70;;;;;;;;;;4955573;29;20227;-70
2023/09/01 13:14:22;;;;;;;0.80;0.50;;;;;;;;;;4954807;29;20215;-70
2023/09/01 13:16:51;;;;;;;0.85;0.85;;;;;;;;;;4954768;29;20216;-70
2023/09/01 13:19:18;;;;;;;0.70;0.70;;;;;;;;;;4954819;29;20208;-70
2023/09/01 13:21:45;;;;;;;0.60;0.60;;;;;;;;;;4957804;28;20199;-70
2023/09/01 13:24:12;;;;;;;0.70;0.70;;;;;;;;;;4958209;29;20207;-71
2023/09/01 13:26:39;;;;;;;0.77;0.77;;;;;;;;;;4957988;29;20580;-70
2023/09/01 13:29:06;;;;;;;0.68;0.68;;;;;;;;;;4958567;29;20218;-70
2023/09/01 13:31:33;;;;;;;0.80;0.80;;;;;;;;;;4958252;29;20224;-70
2023/09/01 13:37:05;;;;;;;0.50;0.50;;;;;;;;;;4957800;29;20614;-71
2023/09/01 13:39:32;;;;;;;0.98;0.88;;;;;;;;;;4957907;29;20215;-71
2023/09/01 13:41:59;;;;;;;0.70;0.70;;;;;;;;;;4957946;29;20200;-71
2023/09/01 13:44:26;;;;;;;0.55;0.55;;;;;;;;;;4957560;29;20675;-71
2023/09/01 13:46:53;;;;;;;0.70;0.70;;;;;;;;;;4958077;29;20207;-71
2023/09/01 13:49:20;;;;;;;1.00;0.70;;;;;;;;;;4958084;29;20223;-71
2023/09/01 13:51:47;;;;;;;0.60;0.60;;;;;;;;;;4957762;29;20227;-70
2023/09/01 13:54:16;;;;;;;0.80;0.80;;;;;;;;;;4957839;29;20576;-71
2023/09/01 13:56:43;;;;;;;1.50;1.00;;;;;;;;;;4958191;29;20203;-71
2023/09/01 13:59:10;;;;;;;1.30;0.90;;;;;;;;;;4958167;29;20210;-70
2023/09/01 14:01:39;;;;;;;1.40;1.20;;;;;;;;;;4957257;29;20671;-70
2023/09/01 14:04:06;;;;;;;0.90;0.90;;;;;;;;;;4957687;29;20209;-70
2023/09/01 14:06:34;;;;;;;0.80;0.80;;;;;;;;;;4957355;29;20223;-70
2023/09/01 14:09:03;;;;;;;1.13;1.00;;;;;;;;;;4957451;28;20238;-70
2023/09/01 14:11:32;;;;;;;2.28;0.60;;;;;;;;;;4956943;29;20598;-71
2023/09/01 14:13:59;;;;;;;0.70;0.70;;;;;;;;;;4957099;29;20651;-71
2023/09/01 14:16:27;;;;;;;0.68;0.68;;;;;;;;;;4957134;29;20226;-71
2023/09/01 14:18:54;;;;;;;0.75;0.75;;;;;;;;;;4957141;29;20624;-70
2023/09/01 14:21:21;;;;;;;0.70;0.70;;;;;;;;;;4957122;29;20209;-71
2023/09/01 14:23:48;;;;;;;0.68;0.68;;;;;;;;;;4957030;29;20208;-71
2023/09/01 14:26:15;;;;;;;0.65;0.65;;;;;;;;;;4956790;29;20236;-67
2023/09/01 14:28:44;;;;;;;0.52;0.52;;;;;;;;;;4957172;29;20211;-70
2023/09/01 14:31:13;;;;;;;0.80;0.80;;;;;;;;;;4956718;28;20718;-69
2023/09/01 14:33:42;;;;;;;0.85;0.85;;;;;;;;;;4956748;29;20208;-70
2023/09/01 14:36:10;;;;;;;1.23;1.13;;;;;;;;;;4957250;29;20237;-70
2023/09/01 14:38:37;;;;;;;1.15;1.05;;;;;;;;;;4956946;28;20239;-70
2023/09/01 14:41:04;;;;;;;0.70;0.70;;;;;;;;;;4956644;29;20663;-70
2023/09/01 14:43:32;;;;;;;0.90;0.90;;;;;;;;;;4957025;29;20226;-69
2023/09/01 14:46:01;;;;;;;1.02;1.02;;;;;;;;;;4956778;29;20294;-69
2023/09/01 14:48:28;;;;;;;0.80;0.80;;;;;;;;;;4956609;29;20667;-69
2023/09/01 14:50:55;;;;;;;0.82;0.82;;;;;;;;;;4956844;29;20215;-70
2023/09/01 14:53:22;;;;;;;0.80;0.80;;;;;;;;;;4956719;29;20211;-69
2023/09/01 14:55:49;;;;;;;1.23;0.88;;;;;;;;;;4956560;29;20232;-70
2023/09/01 14:58:16;;;;;;;1.00;1.00;;;;;;;;;;4956642;29;20229;-70
2023/09/01 15:00:43;;;;;;;0.80;0.75;;;;;;;;;;4956619;29;20206;-70
2023/09/01 15:03:11;;;;;;;0.70;0.70;;;;;;;;;;4956894;29;20214;-71
2023/09/01 15:05:39;;;;;;;0.88;0.85;;;;;;;;;;4956870;29;20224;-70
2023/09/01 15:08:06;;;;;;;0.70;0.70;;;;;;;;;;4956974;28;20254;-70
2023/09/01 15:10:34;;;;;;;1.00;1.00;;;;;;;;;;4957005;29;20223;-70
2023/09/01 15:13:14;;;;;;;1.10;1.10;;;;;;;;;;4957131;28;20245;-70
2023/09/01 15:15:41;;;;;;;0.60;0.60;;;;;;;;;;4956561;29;20234;-69
2023/09/01 15:18:08;;;;;;;0.70;0.70;;;;;;;;;;4956818;29;20200;-70
2023/09/01 15:20:38;;;;;;;0.93;0.93;;;;;;;;;;4956768;28;20223;-70
2023/09/01 15:23:05;;;;;;;0.70;0.70;;;;;;;;;;4956193;28;20278;-70
2023/09/01 15:25:32;;;;;;;0.60;0.60;;;;;;;;;;4955750;29;20266;-70
2023/09/01 15:27:59;;;;;;;1.10;0.98;;;;;;;;;;4955553;29;20566;-68
2023/09/01 15:30:26;;;;;;;0.60;0.60;;;;;;;;;;4955580;29;20590;-68
2023/09/01 15:32:53;;;;;;;0.75;0.75;;;;;;;;;;4955370;29;20206;-70
2023/09/01 15:35:20;;;;;;;0.75;0.73;;;;;;;;;;4955892;29;20227;-69
2023/09/01 15:37:49;;;;;;;1.00;1.00;;;;;;;;;;4955413;28;20575;-69
2023/09/01 15:40:16;;;;;;;1.00;0.88;;;;;;;;;;4955566;29;20694;-68
2023/09/01 15:42:43;;;;;;;0.90;0.85;;;;;;;;;;4956603;28;20206;-68
2023/09/01 15:45:10;;;;;;;0.60;0.60;;;;;;;;;;4955933;29;20223;-67
2023/09/01 15:47:37;;;;;;;0.80;0.80;;;;;;;;;;4955195;29;20690;-66
2023/09/01 15:50:05;;;;;;;0.80;0.80;;;;;;;;;;4955564;29;20207;-67
2023/09/01 15:52:32;;;;;;;0.70;0.70;;;;;;;;;;4955430;29;20227;-68
2023/09/01 15:55:03;;;;;;;0.82;0.82;;;;;;;;;;4955408;29;20227;-69
2023/09/01 15:57:30;;;;;;;0.70;0.70;;;;;;;;;;4955643;29;20287;-70
2023/09/01 15:59:57;;;;;;;0.88;0.88;;;;;;;;;;4955487;29;20207;-70
2023/09/01 16:02:24;;;;;;;0.70;0.70;;;;;;;;;;4955459;29;20207;-70
2023/09/01 16:04:51;;;;;;;0.70;0.70;;;;;;;;;;4954964;29;20590;-70
2023/09/01 16:07:18;;;;;;;0.82;0.82;;;;;;;;;;4955392;29;20207;-71
2023/09/01 16:09:46;;;;;;;0.68;0.68;;;;;;;;;;4955331;29;20203;-70
2023/09/01 16:12:14;;;;;;;0.60;0.60;;;;;;;;;;4955468;29;20223;-71
2023/09/01 16:14:41;;;;;;;0.63;0.63;;;;;;;;;;4955306;29;20227;-70
2023/09/01 16:17:08;;;;;;;0.80;0.80;;;;;;;;;;4955533;29;20207;-71
2023/09/01 16:19:35;;;;;;;0.75;0.63;;;;;;;;;;4955195;29;20690;-71
2023/09/01 16:22:02;;;;;;;1.00;1.00;;;;;;;;;;4955560;29;20196;-71
2023/09/01 16:24:29;;;;;;;0.80;0.80;;;;;;;;;;4955292;29;20199;-71
2023/09/01 16:26:56;;;;;;;0.65;0.65;;;;;;;;;;4955416;29;20199;-71
2023/09/01 16:29:24;;;;;;;0.85;0.70;;;;;;;;;;4955511;29;20253;-71
2023/09/01 16:31:52;;;;;;;0.70;0.70;;;;;;;;;;4955425;29;20216;-71
2023/09/01 16:34:19;;;;;;;0.70;0.70;;;;;;;;;;4955340;29;20210;-71
2023/09/01 16:36:46;;;;;;;1.08;1.08;;;;;;;;;;4955457;29;20230;-71
2023/09/01 16:39:13;;;;;;;1.55;0.60;;;;;;;;;;4955397;29;20204;-71
2023/09/01 16:41:40;;;;;;;0.50;0.50;;;;;;;;;;4955653;28;20636;-71
2023/09/01 16:44:07;;;;;;;0.60;0.60;;;;;;;;;;4955668;29;20200;-71
2023/09/01 16:46:36;;;;;;;0.63;0.63;;;;;;;;;;4955287;29;20220;-70
2023/09/01 16:49:04;;;;;;;0.70;0.70;;;;;;;;;;4955281;29;20210;-71
2023/09/01 16:51:31;;;;;;;0.70;0.70;;;;;;;;;;4955193;29;20220;-71
2023/09/01 16:53:59;;;;;;;0.80;0.80;;;;;;;;;;4955127;29;20210;-70
2023/09/01 16:56:26;;;;;;;0.63;0.63;;;;;;;;;;4957966;28;20227;-72
2023/09/01 16:58:53;;;;;;;0.50;0.50;;;;;;;;;;4958908;29;20203;-72
2023/09/01 17:01:20;;;;;;;1.35;1.35;;;;;;;;;;4958998;28;20606;-72
2023/09/01 17:03:48;;;;;;;3.15;2.95;;;;;;;;;;4959182;29;20282;-72
2023/09/01 17:06:15;;;;;;;3.55;3.35;;;;;;;;;;4959139;29;20586;-72
2023/09/01 17:08:44;;;;;;;3.40;3.22;;;;;;;;;;4958880;29;20207;-72
2023/09/01 17:11:11;;;;;;;2.95;2.75;;;;;;;;;;4958574;29;20602;-72
2023/09/01 17:13:38;;;;;;;2.42;2.33;;;;;;;;;;4958479;29;20207;-72
2023/09/01 17:16:05;;;;;;;1.95;1.85;;;;;;;;;;4958404;29;20220;-71
2023/09/01 17:18:32;;;;;;;1.88;1.77;;;;;;;;;;4958456;29;20204;-71
2023/09/01 17:21:00;;;;;;;2.35;1.60;;;;;;;;;;4958368;29;20208;-71
2023/09/01 17:23:28;;;;;;;1.90;1.80;;;;;;;;;;4958812;29;20199;-72
2023/09/01 17:25:55;;;;;;;1.30;1.30;;;;;;;;;;4958947;29;20231;-72
2023/09/01 17:28:22;;;;;;;1.10;1.10;;;;;;;;;;4959201;29;20204;-72
2023/09/01 17:30:50;;;;;;;1.02;1.00;;;;;;;;;;4959795;29;20207;-73
2023/09/01 17:33:17;;;;;;;1.17;1.17;;;;;;;;;;4959621;29;20585;-72
2023/09/01 17:35:44;;;;;;;1.02;1.02;;;;;;;;;;4958496;29;20226;-72
2023/09/01 17:38:12;;;;;;;0.75;0.75;;;;;;;;;;4958329;29;20211;-72
2023/09/01 17:40:39;;;;;;;0.80;0.80;;;;;;;;;;4958207;29;20207;-71
2023/09/01 17:43:06;;;;;;;0.90;0.90;;;;;;;;;;4957867;29;20706;-72
2023/09/01 17:45:33;;;;;;;0.98;0.85;;;;;;;;;;4957970;29;20230;-72
2023/09/01 17:48:00;;;;;;;0.88;0.88;;;;;;;;;;4958053;29;20210;-71
2023/09/01 17:50:27;;;;;;;0.70;0.70;;;;;;;;;;4958354;29;20208;-71
2023/09/01 17:52:55;;;;;;;0.70;0.70;;;;;;;;;;4957811;29;20228;-71
2023/09/01 17:55:25;;;;;;;0.70;0.70;;;;;;;;;;4957611;29;20230;-71
2023/09/01 17:57:52;;;;;;;0.70;0.60;;;;;;;;;;4958020;29;20203;-71
2023/09/01 18:00:19;;;;;;;0.65;0.65;;;;;;;;;;4958014;29;20207;-71
2023/09/01 18:02:46;;;;;;;0.88;0.88;;;;;;;;;;4957887;28;20235;-71
2023/09/01 18:05:13;;;;;;;0.70;0.70;;;;;;;;;;4957852;29;20224;-71
2023/09/01 18:07:40;;;;;;;0.77;0.77;;;;;;;;;;4956550;28;20207;-72
2023/09/01 18:10:09;;;;;;;0.60;0.60;;;;;;;;;;4957541;29;20204;-72
2023/09/01 18:12:37;;;;;;;0.80;0.80;;;;;;;;;;4957647;29;20310;-72
2023/09/01 18:15:05;;;;;;;0.70;0.70;;;;;;;;;;4957449;29;20223;-72
2023/09/01 18:17:32;;;;;;;1.05;1.00;;;;;;;;;;4957663;29;20212;-72
2023/09/01 18:20:00;;;;;;;0.88;0.88;;;;;;;;;;4957331;29;20204;-72
2023/09/01 18:22:28;;;;;;;0.57;0.57;;;;;;;;;;4957424;29;20196;-72
2023/09/01 18:24:55;;;;;;;0.85;0.85;;;;;;;;;;4956984;29;20232;-72
2023/09/01 18:27:26;;;;;;;0.98;0.98;;;;;;;;;;4956942;29;20663;-72
2023/09/01 18:29:55;;;;;;;2.33;0.88;;;;;;;;;;4957142;29;20192;-72
2023/09/01 18:32:23;;;;;;;1.85;1.02;;;;;;;;;;4957437;29;20335;-71
2023/09/01 18:34:51;;;;;;;0.90;0.90;;;;;;;;;;4956770;29;20234;-71
2023/09/01 18:37:19;;;;;;;1.00;1.00;;;;;;;;;;4956943;29;20204;-71
2023/09/01 18:39:46;;;;;;;1.48;1.08;;;;;;;;;;4956660;29;20671;-71
2023/09/01 18:42:22;;;;;;;2.85;1.27;;;;;;;;;;4957052;29;20207;-71
2023/09/01 18:44:49;;;;;;;1.00;1.00;;;;;;;;;;4956436;29;20711;-71
2023/09/01 18:47:17;;;;;;;1.13;1.13;;;;;;;;;;4956885;29;20211;-71
2023/09/01 18:49:48;;;;;;;1.10;1.10;;;;;;;;;;4957108;29;20207;-71
2023/09/01 18:52:15;;;;;;;1.48;1.10;;;;;;;;;;4956532;29;20574;-71
2023/09/01 18:54:43;;;;;;;0.80;0.80;;;;;;;;;;4956734;29;20247;-71
2023/09/01 18:57:12;;;;;;;0.90;0.90;;;;;;;;;;4956687;29;20209;-71
2023/09/01 18:59:40;;;;;;;1.08;1.08;;;;;;;;;;4956663;29;20207;-71
2023/09/01 19:02:10;;;;;;;0.80;0.80;;;;;;;;;;4956871;28;20223;-71
2023/09/01 19:04:42;;;;;;;0.70;0.70;;;;;;;;;;4956779;29;20231;-71
2023/09/01 19:07:11;;;;;;;0.70;0.70;;;;;;;;;;4956461;28;20219;-71
2023/09/01 19:09:38;;;;;;;0.70;0.70;;;;;;;;;;4956675;29;20212;-71
2023/09/01 19:12:05;;;;;;;0.63;0.63;;;;;;;;;;4956355;29;20224;-71
2023/09/01 19:14:33;;;;;;;0.70;0.70;;;;;;;;;;4956147;29;20204;-71
2023/09/01 19:17:00;;;;;;;0.70;0.70;;;;;;;;;;4956678;29;20215;-71
2023/09/01 19:19:27;;;;;;;0.60;0.60;;;;;;;;;;4956471;28;20231;-71
2023/09/01 19:21:56;;;;;;;0.82;0.82;;;;;;;;;;4956222;29;20671;-71
2023/09/01 19:24:23;;;;;;;0.70;0.70;;;;;;;;;;4956040;29;20294;-71
2023/09/01 19:26:51;;;;;;;0.73;0.73;;;;;;;;;;4956347;29;20208;-71
2023/09/01 19:29:23;;;;;;;0.65;0.65;;;;;;;;;;4956466;29;20302;-71
2023/09/01 19:31:51;;;;;;;0.70;0.70;;;;;;;;;;4956293;28;20212;-71
2023/09/01 19:34:18;;;;;;;0.70;0.70;;;;;;;;;;4956249;28;20236;-71
2023/09/01 19:36:46;;;;;;;0.70;0.70;;;;;;;;;;4956478;29;20295;-71
2023/09/01 19:39:17;;;;;;;0.77;0.77;;;;;;;;;;4956273;28;20205;-71
2023/09/01 19:41:45;;;;;;;0.50;0.50;;;;;;;;;;4956372;29;20196;-73
2023/09/01 19:44:12;;;;;;;0.57;0.57;;;;;;;;;;4956314;29;20559;-71
2023/09/01 19:46:40;;;;;;;0.70;0.70;;;;;;;;;;4955996;29;20224;-72
2023/09/01 19:49:11;;;;;;;0.60;0.60;;;;;;;;;;4956300;29;20200;-73
2023/09/01 19:51:38;;;;;;;0.80;0.80;;;;;;;;;;4956332;29;20188;-71
2023/09/01 19:54:06;;;;;;;0.80;0.80;;;;;;;;;;4955825;29;20575;-70
2023/09/01 19:56:34;;;;;;;0.80;0.80;;;;;;;;;;4955879;29;20733;-71